createdAt,value
2022-12-11T00:02:19.280Z,48.85
2022-12-11T00:07:23.034Z,45.20
2022-12-11T00:12:27.846Z,45.47
2022-12-11T00:17:32.869Z,43.00
2022-12-11T00:22:36.589Z,42.90
2022-12-11T00:27:40.294Z,43.85
2022-12-11T00:32:45.593Z,41.95
2022-12-11T00:37:49.386Z,43.85
2022-12-11T00:42:53.079Z,43.33
2022-12-11T00:47:58.077Z,43.10
2022-12-11T00:53:01.817Z,39.20
2022-12-11T00:58:05.963Z,41.13
2022-12-11T01:03:12.200Z,41.20
2022-12-11T01:08:16.069Z,41.42
2022-12-11T01:13:19.796Z,42.08
2022-12-11T01:18:25.275Z,42.70
2022-12-11T01:23:29.172Z,43.38
2022-12-11T01:28:32.878Z,41.25
2022-12-11T01:33:38.041Z,42.38
2022-12-11T01:38:42.101Z,41.55
2022-12-11T01:44:05.527Z,41.65
2022-12-11T01:49:14.206Z,41.97
2022-12-11T01:54:20.185Z,40.90
2022-12-11T01:59:27.994Z,39.63
2022-12-11T02:04:34.268Z,41.80
2022-12-11T02:09:40.493Z,38.67
2022-12-11T02:14:50.571Z,39.90
2022-12-11T02:20:04.041Z,38.65
2022-12-11T02:25:19.460Z,36.97
2022-12-11T02:30:25.597Z,38.25
2022-12-11T02:35:33.595Z,37.65
2022-12-11T02:40:41.205Z,37.85
2022-12-11T02:45:48.031Z,35.42
2022-12-11T02:50:57.218Z,33.15
2022-12-11T02:56:07.354Z,31.23
2022-12-11T03:01:13.060Z,29.83
2022-12-11T03:06:21.230Z,28.52
2022-12-11T03:16:36.105Z,25.12
2022-12-11T03:21:46.074Z,27.75
2022-12-11T03:26:56.628Z,25.98
2022-12-11T03:32:09.478Z,27.23
2022-12-11T03:37:15.705Z,29.33
2022-12-11T03:42:22.242Z,27.80
2022-12-11T03:47:29.768Z,30.55
2022-12-11T03:52:34.634Z,30.40
2022-12-11T03:57:39.186Z,30.08
2022-12-11T04:02:44.462Z,30.40
2022-12-11T04:07:48.182Z,29.80
2022-12-11T04:12:51.900Z,30.67
2022-12-11T04:18:14.499Z,24.92
2022-12-11T04:23:37.418Z,24.50
2022-12-11T04:28:41.720Z,25.52
2022-12-11T04:33:47.366Z,23.87
2022-12-11T04:38:51.264Z,21.10
2022-12-11T04:43:55.179Z,21.48
2022-12-11T04:49:00.892Z,22.25
2022-12-11T04:54:04.710Z,22.23
2022-12-11T04:59:08.450Z,22.15
2022-12-11T05:04:13.470Z,22.00
2022-12-11T05:09:17.214Z,21.25
2022-12-11T05:14:21.105Z,20.88
2022-12-11T05:19:26.267Z,19.58
2022-12-11T05:24:29.956Z,21.42
2022-12-11T05:29:33.625Z,22.27
2022-12-11T05:34:38.798Z,21.12
2022-12-11T05:39:42.516Z,21.10
2022-12-11T05:44:46.491Z,19.52
2022-12-11T05:49:51.517Z,20.35
2022-12-11T05:54:55.182Z,20.08
2022-12-11T05:59:58.891Z,20.30
2022-12-11T06:05:04.000Z,21.27
2022-12-11T06:10:08.449Z,20.37
2022-12-11T06:15:12.419Z,18.90
2022-12-11T06:20:17.774Z,18.67
2022-12-11T06:25:21.454Z,18.62
2022-12-11T06:30:38.603Z,17.55
2022-12-11T06:35:44.390Z,18.58
2022-12-11T06:40:56.060Z,18.50
2022-12-11T06:46:03.799Z,18.87
2022-12-11T06:51:11.043Z,18.00
2022-12-11T06:56:16.430Z,17.62
2022-12-11T07:01:22.840Z,17.37
2022-12-11T07:06:29.499Z,18.00
2022-12-11T07:11:33.541Z,17.87
2022-12-11T07:16:37.766Z,19.02
2022-12-11T07:21:42.994Z,17.67
2022-12-11T07:26:46.807Z,18.48
2022-12-11T07:31:50.634Z,19.40
2022-12-11T07:36:55.707Z,20.10
2022-12-11T07:41:59.393Z,23.20
2022-12-11T07:47:03.180Z,20.73
2022-12-11T07:52:08.198Z,19.37
2022-12-11T07:57:14.176Z,19.92
2022-12-11T08:02:18.201Z,20.92
2022-12-11T08:07:23.225Z,20.25
2022-12-11T08:12:26.934Z,19.37
2022-12-11T08:17:35.148Z,21.85
2022-12-11T08:22:43.607Z,21.48
2022-12-11T08:27:47.325Z,21.70
2022-12-11T08:32:51.052Z,23.05
2022-12-11T08:37:56.116Z,22.70
2022-12-11T08:42:59.854Z,22.67
2022-12-11T08:48:03.525Z,21.62
2022-12-11T08:53:08.874Z,22.10
2022-12-11T08:58:12.589Z,21.90
2022-12-11T09:03:16.263Z,22.42
2022-12-11T09:08:21.519Z,23.85
2022-12-11T09:13:25.247Z,23.33
2022-12-11T09:18:28.912Z,23.42
2022-12-11T09:23:34.547Z,23.73
2022-12-11T09:28:42.850Z,23.27
2022-12-11T09:33:50.734Z,22.73
2022-12-11T09:38:55.897Z,25.08
2022-12-11T09:44:06.263Z,24.25
2022-12-11T09:49:28.312Z,22.52
2022-12-11T09:54:34.194Z,24.37
2022-12-11T09:59:48.018Z,26.00
2022-12-11T10:05:01.435Z,24.90
2022-12-11T10:10:12.949Z,26.58
2022-12-11T10:15:27.302Z,27.40
2022-12-11T10:20:35.506Z,25.75
2022-12-11T10:25:46.070Z,28.08
2022-12-11T10:31:01.933Z,29.42
2022-12-11T10:36:09.783Z,31.60
2022-12-11T10:41:18.343Z,28.17
2022-12-11T10:46:25.357Z,31.23
2022-12-11T10:51:37.476Z,31.67
2022-12-11T10:56:42.767Z,29.05
2022-12-11T11:01:48.088Z,28.17
2022-12-11T11:07:03.132Z,27.98
2022-12-11T11:12:19.829Z,27.95
2022-12-11T11:17:23.637Z,28.98
2022-12-11T11:22:27.712Z,27.60
2022-12-11T11:27:38.014Z,29.02
2022-12-11T11:32:42.959Z,26.17
2022-12-11T11:37:54.351Z,25.98
2022-12-11T11:43:08.263Z,25.85
2022-12-11T11:48:28.434Z,26.27
2022-12-11T11:53:37.428Z,24.90
2022-12-11T11:58:48.246Z,24.75
2022-12-11T12:03:53.479Z,24.48
2022-12-11T12:09:03.911Z,25.12
2022-12-11T12:14:50.471Z,25.90
2022-12-11T12:19:51.008Z,25.30
2022-12-11T12:25:07.262Z,25.02
2022-12-11T12:30:21.780Z,32.50
2022-12-11T12:35:36.705Z,25.20
2022-12-11T12:40:55.653Z,23.15
2022-12-11T12:46:11.995Z,24.65
2022-12-11T12:51:17.588Z,22.92
2022-12-11T12:56:23.185Z,21.83
2022-12-11T13:01:30.586Z,21.98
2022-12-11T13:06:37.941Z,20.90
2022-12-11T13:11:41.717Z,19.60
2022-12-11T13:16:48.547Z,20.55
2022-12-11T13:21:57.655Z,20.98
2022-12-11T13:27:10.731Z,20.10
2022-12-11T13:32:31.659Z,21.30
2022-12-11T13:37:41.147Z,22.95
2022-12-11T13:42:50.398Z,22.42
2022-12-11T13:47:56.055Z,21.95
2022-12-11T13:53:02.293Z,20.80
2022-12-11T13:58:17.463Z,19.40
2022-12-11T14:03:22.603Z,19.12
2022-12-11T14:08:35.130Z,18.55
2022-12-11T14:13:41.961Z,17.75
2022-12-11T14:18:47.164Z,18.20
2022-12-11T14:23:54.089Z,17.83
2022-12-11T14:28:58.029Z,18.45
2022-12-11T14:34:12.683Z,17.67
2022-12-11T14:39:20.842Z,18.55
2022-12-11T14:44:28.287Z,20.35
2022-12-11T14:49:42.159Z,18.92
2022-12-11T14:54:51.196Z,18.20
2022-12-11T14:59:57.166Z,18.95
2022-12-11T15:05:14.940Z,19.58
2022-12-11T15:10:26.970Z,21.33
2022-12-11T15:15:34.677Z,18.80
2022-12-11T15:20:39.777Z,18.33
2022-12-11T15:25:52.421Z,18.27
2022-12-11T15:30:58.113Z,17.83
2022-12-11T15:36:06.189Z,17.95
2022-12-11T15:46:17.845Z,16.73
2022-12-11T15:51:23.597Z,17.10
2022-12-11T15:56:27.371Z,18.10
2022-12-11T16:01:31.160Z,20.52
2022-12-11T16:06:36.326Z,19.20
2022-12-11T16:11:40.157Z,19.92
2022-12-11T16:16:44.128Z,18.20
2022-12-11T16:21:49.320Z,18.05
2022-12-11T16:26:53.342Z,18.67
2022-12-11T16:31:57.076Z,18.02
2022-12-11T16:37:02.781Z,19.02
2022-12-11T16:42:07.155Z,18.95
2022-12-11T16:47:11.014Z,17.92
2022-12-11T16:52:21.822Z,19.85
2022-12-11T16:57:27.277Z,21.10
2022-12-11T17:02:31.017Z,19.77
2022-12-11T17:07:36.348Z,18.80
2022-12-11T17:12:40.151Z,20.70
2022-12-11T17:17:44.929Z,21.08
2022-12-11T17:22:50.153Z,18.95
2022-12-11T17:27:53.870Z,19.35
2022-12-11T17:32:57.829Z,19.65
2022-12-11T17:38:02.912Z,21.40
2022-12-11T17:43:09.284Z,20.48
2022-12-11T17:48:13.477Z,19.30
2022-12-11T17:53:19.982Z,19.87
2022-12-11T17:58:24.629Z,18.60
2022-12-11T18:03:29.487Z,17.35
2022-12-11T18:08:34.677Z,16.77
2022-12-11T18:13:38.514Z,16.98
2022-12-11T18:18:42.256Z,19.10
2022-12-11T18:23:47.472Z,17.70
2022-12-11T18:28:54.002Z,18.12
2022-12-11T18:33:57.954Z,17.75
2022-12-11T18:39:03.350Z,17.95
2022-12-11T18:44:09.890Z,17.40
2022-12-11T18:49:15.381Z,17.37
2022-12-11T18:54:20.525Z,16.48
2022-12-11T18:59:24.423Z,17.15
2022-12-11T19:04:28.446Z,18.87
2022-12-11T19:09:37.944Z,18.37
2022-12-11T19:14:42.256Z,17.12
2022-12-11T19:19:47.381Z,17.52
2022-12-11T19:24:52.744Z,17.98
2022-12-11T19:29:56.559Z,18.85
2022-12-11T19:35:00.447Z,17.35
2022-12-11T19:40:07.470Z,17.33
2022-12-11T19:45:12.459Z,17.23
2022-12-11T19:50:16.286Z,17.67
2022-12-11T19:55:21.770Z,17.35
2022-12-11T20:00:25.685Z,17.35
2022-12-11T20:05:29.361Z,17.40
2022-12-11T20:10:35.953Z,18.48
2022-12-11T20:15:40.339Z,18.40
2022-12-11T20:20:44.843Z,17.40
2022-12-11T20:25:55.923Z,18.10
2022-12-11T20:31:05.758Z,17.77
2022-12-11T20:36:10.876Z,18.37
2022-12-11T20:41:19.478Z,18.55
2022-12-11T20:46:24.955Z,22.58
2022-12-11T20:51:29.084Z,21.60
2022-12-11T20:56:34.161Z,26.20
2022-12-11T21:01:37.939Z,21.45
2022-12-11T21:06:42.113Z,20.95
2022-12-11T21:11:47.395Z,20.67
2022-12-11T21:16:51.226Z,20.05
2022-12-11T21:21:55.001Z,19.25
2022-12-11T21:27:00.157Z,20.58
2022-12-11T21:32:04.112Z,19.80
2022-12-11T21:37:07.955Z,20.98
2022-12-11T21:42:13.014Z,19.75
2022-12-11T21:47:16.767Z,20.62
2022-12-11T21:52:20.736Z,21.98
2022-12-11T21:57:26.922Z,21.62
2022-12-11T22:02:30.830Z,22.85
2022-12-11T22:07:34.557Z,21.17
2022-12-11T22:12:39.772Z,21.83
2022-12-11T22:17:43.517Z,21.55
2022-12-11T22:22:47.789Z,21.60
2022-12-11T22:27:52.866Z,22.52
2022-12-11T22:32:56.599Z,24.27
2022-12-11T22:38:00.410Z,22.92
2022-12-11T22:43:05.726Z,24.60
2022-12-11T22:48:09.990Z,24.48
2022-12-11T22:53:13.826Z,23.02
2022-12-11T22:58:21.927Z,24.42
2022-12-11T23:03:25.898Z,25.83
2022-12-11T23:08:29.793Z,24.12
2022-12-11T23:13:34.919Z,25.50
2022-12-11T23:18:39.564Z,23.08
2022-12-11T23:23:43.354Z,26.33
2022-12-11T23:28:48.657Z,23.83
2022-12-11T23:33:52.561Z,26.35
2022-12-11T23:38:56.629Z,25.62
2022-12-11T23:44:01.724Z,24.48
2022-12-11T23:49:06.032Z,26.00
2022-12-11T23:54:09.782Z,24.55
2022-12-11T23:59:15.600Z,25.12
